sensor_id;sensor_type;location;lat;lon;timestamp;temperature;humidity
7530;DHT22;3806;52.270;10.544;2023-03-01T00:00:19;1.40;89.50
7530;DHT22;3806;52.270;10.544;2023-03-01T00:02:44;1.30;89.70
7530;DHT22;3806;52.270;10.544;2023-03-01T00:05:10;1.30;90.00
7530;DHT22;3806;52.270;10.544;2023-03-01T00:07:35;1.20;90.10
7530;DHT22;3806;52.270;10.544;2023-03-01T00:10:01;1.20;90.30
7530;DHT22;3806;52.270;10.544;2023-03-01T00:12:26;1.20;90.50
7530;DHT22;3806;52.270;10.544;2023-03-01T00:14:53;1.10;90.60
7530;DHT22;3806;52.270;10.544;2023-03-01T00:17:18;1.10;90.70
7530;DHT22;3806;52.270;10.544;2023-03-01T00:19:44;1.10;90.80
7530;DHT22;3806;52.270;10.544;2023-03-01T00:22:09;1.10;91.00
7530;DHT22;3806;52.270;10.544;2023-03-01T00:24:34;1.00;91.20
7530;DHT22;3806;52.270;10.544;2023-03-01T00:27:00;1.00;91.30
7530;DHT22;3806;52.270;10.544;2023-03-01T00:29:26;1.00;91.50
7530;DHT22;3806;52.270;10.544;2023-03-01T00:31:51;1.00;91.60
7530;DHT22;3806;52.270;10.544;2023-03-01T00:34:17;1.00;91.70
7530;DHT22;3806;52.270;10.544;2023-03-01T00:36:42;1.00;91.70
7530;DHT22;3806;52.270;10.544;2023-03-01T00:39:14;1.00;91.60
7530;DHT22;3806;52.270;10.544;2023-03-01T00:41:40;1.00;91.70
7530;DHT22;3806;52.270;10.544;2023-03-01T00:44:06;1.00;91.70
7530;DHT22;3806;52.270;10.544;2023-03-01T00:46:32;1.00;91.80
7530;DHT22;3806;52.270;10.544;2023-03-01T00:48:57;1.00;91.80
7530;DHT22;3806;52.270;10.544;2023-03-01T00:51:26;0.90;91.80
7530;DHT22;3806;52.270;10.544;2023-03-01T00:53:54;0.90;91.90
7530;DHT22;3806;52.270;10.544;2023-03-01T00:56:20;0.80;91.90
7530;DHT22;3806;52.270;10.544;2023-03-01T00:58:46;0.80;92.00
7530;DHT22;3806;52.270;10.544;2023-03-01T01:01:14;0.80;92.00
7530;DHT22;3806;52.270;10.544;2023-03-01T01:03:48;0.80;92.10
7530;DHT22;3806;52.270;10.544;2023-03-01T01:06:19;0.70;92.10
7530;DHT22;3806;52.270;10.544;2023-03-01T01:08:45;0.70;92.10
7530;DHT22;3806;52.270;10.544;2023-03-01T01:11:11;0.70;92.10
7530;DHT22;3806;52.270;10.544;2023-03-01T01:13:38;0.70;92.10
7530;DHT22;3806;52.270;10.544;2023-03-01T01:16:04;0.70;92.20
7530;DHT22;3806;52.270;10.544;2023-03-01T01:18:29;0.70;92.20
7530;DHT22;3806;52.270;10.544;2023-03-01T01:20:55;0.70;92.40
7530;DHT22;3806;52.270;10.544;2023-03-01T01:23:20;0.60;92.10
7530;DHT22;3806;52.270;10.544;2023-03-01T01:25:46;0.60;92.30
7530;DHT22;3806;52.270;10.544;2023-03-01T01:28:11;0.60;92.40
7530;DHT22;3806;52.270;10.544;2023-03-01T01:30:37;0.60;92.70
7530;DHT22;3806;52.270;10.544;2023-03-01T01:33:02;0.50;92.80
7530;DHT22;3806;52.270;10.544;2023-03-01T01:35:28;0.50;93.20
7530;DHT22;3806;52.270;10.544;2023-03-01T01:37:56;0.50;93.00
7530;DHT22;3806;52.270;10.544;2023-03-01T01:40:22;0.50;93.10
7530;DHT22;3806;52.270;10.544;2023-03-01T01:42:47;0.50;93.10
7530;DHT22;3806;52.270;10.544;2023-03-01T01:45:30;0.50;93.10
7530;DHT22;3806;52.270;10.544;2023-03-01T01:48:01;0.50;93.10
7530;DHT22;3806;52.270;10.544;2023-03-01T01:50:28;0.40;93.20
7530;DHT22;3806;52.270;10.544;2023-03-01T01:53:05;0.40;93.30
7530;DHT22;3806;52.270;10.544;2023-03-01T01:55:31;0.40;93.50
7530;DHT22;3806;52.270;10.544;2023-03-01T01:58:00;0.30;93.60
7530;DHT22;3806;52.270;10.544;2023-03-01T02:00:29;0.30;93.70
7530;DHT22;3806;52.270;10.544;2023-03-01T02:02:57;0.30;93.80
7530;DHT22;3806;52.270;10.544;2023-03-01T02:05:29;0.30;93.90
7530;DHT22;3806;52.270;10.544;2023-03-01T02:07:58;0.30;93.90
7530;DHT22;3806;52.270;10.544;2023-03-01T02:10:24;0.30;94.00
7530;DHT22;3806;52.270;10.544;2023-03-01T02:12:51;0.30;94.00
7530;DHT22;3806;52.270;10.544;2023-03-01T02:15:17;0.20;94.10
7530;DHT22;3806;52.270;10.544;2023-03-01T02:17:43;0.20;94.20
7530;DHT22;3806;52.270;10.544;2023-03-01T02:20:34;0.00;94.20
7530;DHT22;3806;52.270;10.544;2023-03-01T02:23:00;0.20;94.40
7530;DHT22;3806;52.270;10.544;2023-03-01T02:25:40;0.20;94.70
7530;DHT22;3806;52.270;10.544;2023-03-01T02:30:42;0.20;95.00
7530;DHT22;3806;52.270;10.544;2023-03-01T02:33:29;0.10;95.00
7530;DHT22;3806;52.270;10.544;2023-03-01T02:36:03;0.10;95.20
7530;DHT22;3806;52.270;10.544;2023-03-01T02:38:30;0.10;95.20
7530;DHT22;3806;52.270;10.544;2023-03-01T02:40:57;0.10;95.20
7530;DHT22;3806;52.270;10.544;2023-03-01T02:43:28;0.10;95.30
7530;DHT22;3806;52.270;10.544;2023-03-01T02:45:58;0.10;95.40
7530;DHT22;3806;52.270;10.544;2023-03-01T02:48:24;0.10;95.30
7530;DHT22;3806;52.270;10.544;2023-03-01T02:50:57;0.10;95.30
7530;DHT22;3806;52.270;10.544;2023-03-01T02:56:00;0.00;95.40
7530;DHT22;3806;52.270;10.544;2023-03-01T02:58:26;0.00;95.50
7530;DHT22;3806;52.270;10.544;2023-03-01T03:00:52;0.00;95.60
7530;DHT22;3806;52.270;10.544;2023-03-01T03:03:20;0.00;95.70
7530;DHT22;3806;52.270;10.544;2023-03-01T03:05:46;0.00;95.70
7530;DHT22;3806;52.270;10.544;2023-03-01T03:08:12;0.00;95.70
7530;DHT22;3806;52.270;10.544;2023-03-01T03:10:40;0.00;95.60
7530;DHT22;3806;52.270;10.544;2023-03-01T03:13:11;0.00;95.50
7530;DHT22;3806;52.270;10.544;2023-03-01T03:15:37;-0.10;95.50
7530;DHT22;3806;52.270;10.544;2023-03-01T03:18:06;-0.20;95.40
7530;DHT22;3806;52.270;10.544;2023-03-01T03:20:32;-0.20;95.40
7530;DHT22;3806;52.270;10.544;2023-03-01T03:22:59;-0.10;95.50
7530;DHT22;3806;52.270;10.544;2023-03-01T03:25:25;-0.10;95.60
7530;DHT22;3806;52.270;10.544;2023-03-01T03:27:52;-0.10;95.50
7530;DHT22;3806;52.270;10.544;2023-03-01T03:30:33;-0.20;95.50
7530;DHT22;3806;52.270;10.544;2023-03-01T03:32:59;-0.30;95.70
7530;DHT22;3806;52.270;10.544;2023-03-01T03:35:30;-0.30;95.80
7530;DHT22;3806;52.270;10.544;2023-03-01T03:37:57;-0.30;96.00
7530;DHT22;3806;52.270;10.544;2023-03-01T03:40:37;-0.40;96.00
7530;DHT22;3806;52.270;10.544;2023-03-01T03:43:05;-0.40;96.00
7530;DHT22;3806;52.270;10.544;2023-03-01T03:45:32;-0.50;96.10
7530;DHT22;3806;52.270;10.544;2023-03-01T03:47:59;-0.40;96.30
7530;DHT22;3806;52.270;10.544;2023-03-01T03:50:25;-0.50;96.40
7530;DHT22;3806;52.270;10.544;2023-03-01T03:52:51;-0.60;96.50
7530;DHT22;3806;52.270;10.544;2023-03-01T03:55:17;-0.60;96.60
7530;DHT22;3806;52.270;10.544;2023-03-01T03:57:45;-0.60;96.70
7530;DHT22;3806;52.270;10.544;2023-03-01T04:00:18;-0.60;96.70
7530;DHT22;3806;52.270;10.544;2023-03-01T04:02:45;-0.60;96.70
7530;DHT22;3806;52.270;10.544;2023-03-01T04:05:14;-0.60;96.80
7530;DHT22;3806;52.270;10.544;2023-03-01T04:07:40;-0.70;96.80
7530;DHT22;3806;52.270;10.544;2023-03-01T04:10:11;-0.60;97.00
7530;DHT22;3806;52.270;10.544;2023-03-01T04:12:37;-0.60;97.00
7530;DHT22;3806;52.270;10.544;2023-03-01T04:15:04;-0.60;97.00
7530;DHT22;3806;52.270;10.544;2023-03-01T04:17:45;-0.70;96.80
7530;DHT22;3806;52.270;10.544;2023-03-01T04:20:16;-0.70;96.90
7530;DHT22;3806;52.270;10.544;2023-03-01T04:22:43;-0.70;96.90
7530;DHT22;3806;52.270;10.544;2023-03-01T04:25:12;-0.70;96.90
7530;DHT22;3806;52.270;10.544;2023-03-01T04:27:39;-0.70;96.90
7530;DHT22;3806;52.270;10.544;2023-03-01T04:30:06;-0.70;96.90
7530;DHT22;3806;52.270;10.544;2023-03-01T04:32:31;-0.70;97.00
7530;DHT22;3806;52.270;10.544;2023-03-01T04:34:57;-0.80;97.00
7530;DHT22;3806;52.270;10.544;2023-03-01T04:37:23;-0.80;97.00
7530;DHT22;3806;52.270;10.544;2023-03-01T04:39:49;-0.90;97.10
7530;DHT22;3806;52.270;10.544;2023-03-01T04:42:15;-0.70;97.10
7530;DHT22;3806;52.270;10.544;2023-03-01T04:44:42;-0.70;97.10
7530;DHT22;3806;52.270;10.544;2023-03-01T04:47:07;-0.80;97.10
7530;DHT22;3806;52.270;10.544;2023-03-01T04:49:33;-0.80;97.10
7530;DHT22;3806;52.270;10.544;2023-03-01T04:51:59;-0.80;97.20
7530;DHT22;3806;52.270;10.544;2023-03-01T04:54:30;-0.80;97.30
7530;DHT22;3806;52.270;10.544;2023-03-01T04:56:56;-0.90;97.40
7530;DHT22;3806;52.270;10.544;2023-03-01T04:59:21;-0.90;97.50
7530;DHT22;3806;52.270;10.544;2023-03-01T05:01:48;-0.90;97.60
7530;DHT22;3806;52.270;10.544;2023-03-01T05:04:14;-1.00;97.60
7530;DHT22;3806;52.270;10.544;2023-03-01T05:06:39;-0.90;97.70
7530;DHT22;3806;52.270;10.544;2023-03-01T05:09:05;-0.90;97.70
7530;DHT22;3806;52.270;10.544;2023-03-01T05:11:30;-0.90;97.60
7530;DHT22;3806;52.270;10.544;2023-03-01T05:14:01;-0.90;97.70
7530;DHT22;3806;52.270;10.544;2023-03-01T05:16:26;-0.90;97.60
7530;DHT22;3806;52.270;10.544;2023-03-01T05:18:52;-0.90;97.50
7530;DHT22;3806;52.270;10.544;2023-03-01T05:21:20;-0.90;97.60
7530;DHT22;3806;52.270;10.544;2023-03-01T05:23:46;-0.90;97.60
7530;DHT22;3806;52.270;10.544;2023-03-01T05:26:12;-0.90;97.60
7530;DHT22;3806;52.270;10.544;2023-03-01T05:28:38;-1.00;97.50
7530;DHT22;3806;52.270;10.544;2023-03-01T05:31:03;-1.00;97.60
7530;DHT22;3806;52.270;10.544;2023-03-01T05:33:35;-1.00;97.60
7530;DHT22;3806;52.270;10.544;2023-03-01T05:36:01;-1.00;97.60
7530;DHT22;3806;52.270;10.544;2023-03-01T05:38:27;-1.00;97.60
7530;DHT22;3806;52.270;10.544;2023-03-01T05:40:52;-1.00;97.60
7530;DHT22;3806;52.270;10.544;2023-03-01T05:43:18;-1.10;97.60
7530;DHT22;3806;52.270;10.544;2023-03-01T05:45:44;-1.10;97.60
7530;DHT22;3806;52.270;10.544;2023-03-01T05:48:10;-1.10;97.60
7530;DHT22;3806;52.270;10.544;2023-03-01T05:50:39;-1.10;97.60
7530;DHT22;3806;52.270;10.544;2023-03-01T05:53:08;-1.10;97.80
7530;DHT22;3806;52.270;10.544;2023-03-01T05:55:35;-1.10;97.80
7530;DHT22;3806;52.270;10.544;2023-03-01T05:58:02;-1.10;97.70
7530;DHT22;3806;52.270;10.544;2023-03-01T06:00:29;-1.10;97.60
7530;DHT22;3806;52.270;10.544;2023-03-01T06:02:56;-1.10;97.60
7530;DHT22;3806;52.270;10.544;2023-03-01T06:05:22;-1.10;97.60
7530;DHT22;3806;52.270;10.544;2023-03-01T06:07:48;-1.10;97.80
7530;DHT22;3806;52.270;10.544;2023-03-01T06:10:14;-1.10;97.30
7530;DHT22;3806;52.270;10.544;2023-03-01T06:12:41;-1.00;97.30
7530;DHT22;3806;52.270;10.544;2023-03-01T06:15:08;-1.00;97.30
7530;DHT22;3806;52.270;10.544;2023-03-01T06:17:35;-1.00;97.30
7530;DHT22;3806;52.270;10.544;2023-03-01T06:20:08;-1.10;97.20
7530;DHT22;3806;52.270;10.544;2023-03-01T06:22:34;-1.00;97.30
7530;DHT22;3806;52.270;10.544;2023-03-01T06:24:59;-1.00;97.20
7530;DHT22;3806;52.270;10.544;2023-03-01T06:27:25;-1.00;97.10
7530;DHT22;3806;52.270;10.544;2023-03-01T06:29:50;-0.90;97.20
7530;DHT22;3806;52.270;10.544;2023-03-01T06:32:16;-0.90;97.20
7530;DHT22;3806;52.270;10.544;2023-03-01T06:34:41;-0.90;97.10
7530;DHT22;3806;52.270;10.544;2023-03-01T06:37:07;-0.80;97.00
7530;DHT22;3806;52.270;10.544;2023-03-01T06:39:33;-0.80;96.90
7530;DHT22;3806;52.270;10.544;2023-03-01T06:41:59;-0.80;96.80
7530;DHT22;3806;52.270;10.544;2023-03-01T06:44:24;-0.70;96.90
7530;DHT22;3806;52.270;10.544;2023-03-01T06:46:50;-0.70;96.80
7530;DHT22;3806;52.270;10.544;2023-03-01T06:49:15;-0.70;96.80
7530;DHT22;3806;52.270;10.544;2023-03-01T06:51:43;-0.60;96.90
7530;DHT22;3806;52.270;10.544;2023-03-01T06:54:09;-0.50;96.90
7530;DHT22;3806;52.270;10.544;2023-03-01T06:56:34;-0.40;96.80
7530;DHT22;3806;52.270;10.544;2023-03-01T06:59:00;-0.40;96.80
7530;DHT22;3806;52.270;10.544;2023-03-01T07:01:25;-0.20;96.70
7530;DHT22;3806;52.270;10.544;2023-03-01T07:03:51;0.00;96.70
7530;DHT22;3806;52.270;10.544;2023-03-01T07:06:17;0.30;96.60
7530;DHT22;3806;52.270;10.544;2023-03-01T07:08:43;0.50;96.00
7530;DHT22;3806;52.270;10.544;2023-03-01T07:11:08;0.70;95.20
7530;DHT22;3806;52.270;10.544;2023-03-01T07:13:34;0.90;94.60
7530;DHT22;3806;52.270;10.544;2023-03-01T07:16:00;1.00;94.10
7530;DHT22;3806;52.270;10.544;2023-03-01T07:18:25;1.10;93.80
7530;DHT22;3806;52.270;10.544;2023-03-01T07:20:52;1.20;93.30
7530;DHT22;3806;52.270;10.544;2023-03-01T07:23:18;1.30;93.20
7530;DHT22;3806;52.270;10.544;2023-03-01T07:25:44;1.30;93.00
7530;DHT22;3806;52.270;10.544;2023-03-01T07:28:09;1.40;93.00
7530;DHT22;3806;52.270;10.544;2023-03-01T07:30:35;1.50;92.80
7530;DHT22;3806;52.270;10.544;2023-03-01T07:33:00;1.50;92.60
7530;DHT22;3806;52.270;10.544;2023-03-01T07:35:27;1.60;92.50
7530;DHT22;3806;52.270;10.544;2023-03-01T07:37:53;1.70;92.20
7530;DHT22;3806;52.270;10.544;2023-03-01T07:40:18;1.80;92.00
7530;DHT22;3806;52.270;10.544;2023-03-01T07:42:44;1.80;91.90
7530;DHT22;3806;52.270;10.544;2023-03-01T07:45:10;1.90;91.80
7530;DHT22;3806;52.270;10.544;2023-03-01T07:47:36;2.10;91.80
7530;DHT22;3806;52.270;10.544;2023-03-01T07:50:02;2.30;91.60
7530;DHT22;3806;52.270;10.544;2023-03-01T07:52:29;2.60;91.40
7530;DHT22;3806;52.270;10.544;2023-03-01T07:54:54;3.50;91.70
7530;DHT22;3806;52.270;10.544;2023-03-01T07:57:20;5.20;91.20
7530;DHT22;3806;52.270;10.544;2023-03-01T07:59:45;7.90;81.80
7530;DHT22;3806;52.270;10.544;2023-03-01T08:02:11;10.80;62.70
7530;DHT22;3806;52.270;10.544;2023-03-01T08:04:37;13.60;49.70
7530;DHT22;3806;52.270;10.544;2023-03-01T08:07:05;16.10;40.50
7530;DHT22;3806;52.270;10.544;2023-03-01T08:09:31;18.30;32.60
7530;DHT22;3806;52.270;10.544;2023-03-01T08:11:57;19.70;29.00
7530;DHT22;3806;52.270;10.544;2023-03-01T08:14:25;19.50;27.10
7530;DHT22;3806;52.270;10.544;2023-03-01T08:16:50;18.10;26.30
7530;DHT22;3806;52.270;10.544;2023-03-01T08:19:16;17.10;27.30
7530;DHT22;3806;52.270;10.544;2023-03-01T08:21:42;17.80;27.40
7530;DHT22;3806;52.270;10.544;2023-03-01T08:24:08;19.40;26.50
7530;DHT22;3806;52.270;10.544;2023-03-01T08:26:35;21.30;24.80
7530;DHT22;3806;52.270;10.544;2023-03-01T08:29:01;23.00;23.30
7530;DHT22;3806;52.270;10.544;2023-03-01T08:31:30;24.50;21.90
7530;DHT22;3806;52.270;10.544;2023-03-01T08:33:58;25.80;20.40
7530;DHT22;3806;52.270;10.544;2023-03-01T08:36:30;27.00;19.20
7530;DHT22;3806;52.270;10.544;2023-03-01T08:38:56;28.10;18.20
7530;DHT22;3806;52.270;10.544;2023-03-01T08:41:22;29.10;17.50
7530;DHT22;3806;52.270;10.544;2023-03-01T08:43:48;29.80;16.20
7530;DHT22;3806;52.270;10.544;2023-03-01T08:46:14;30.50;16.00
7530;DHT22;3806;52.270;10.544;2023-03-01T08:48:40;31.00;15.70
7530;DHT22;3806;52.270;10.544;2023-03-01T08:51:14;31.60;15.20
7530;DHT22;3806;52.270;10.544;2023-03-01T08:53:40;32.20;14.90
7530;DHT22;3806;52.270;10.544;2023-03-01T08:56:06;32.50;14.50
7530;DHT22;3806;52.270;10.544;2023-03-01T08:58:32;32.70;14.20
7530;DHT22;3806;52.270;10.544;2023-03-01T09:00:58;32.70;14.00
7530;DHT22;3806;52.270;10.544;2023-03-01T09:03:24;32.40;13.80
7530;DHT22;3806;52.270;10.544;2023-03-01T09:05:51;32.20;13.40
7530;DHT22;3806;52.270;10.544;2023-03-01T09:08:17;32.20;13.20
7530;DHT22;3806;52.270;10.544;2023-03-01T09:10:42;32.40;13.20
7530;DHT22;3806;52.270;10.544;2023-03-01T09:13:09;32.90;12.90
7530;DHT22;3806;52.270;10.544;2023-03-01T09:15:37;33.10;12.70
7530;DHT22;3806;52.270;10.544;2023-03-01T09:18:02;33.20;12.50
7530;DHT22;3806;52.270;10.544;2023-03-01T09:20:28;33.00;12.60
7530;DHT22;3806;52.270;10.544;2023-03-01T09:22:53;33.10;12.60
7530;DHT22;3806;52.270;10.544;2023-03-01T09:25:19;33.30;12.50
7530;DHT22;3806;52.270;10.544;2023-03-01T09:27:44;33.60;12.20
7530;DHT22;3806;52.270;10.544;2023-03-01T09:30:10;33.60;12.10
7530;DHT22;3806;52.270;10.544;2023-03-01T09:32:36;33.80;12.20
7530;DHT22;3806;52.270;10.544;2023-03-01T09:35:01;34.20;11.90
7530;DHT22;3806;52.270;10.544;2023-03-01T09:37:31;34.70;11.80
7530;DHT22;3806;52.270;10.544;2023-03-01T09:39:56;35.30;11.50
7530;DHT22;3806;52.270;10.544;2023-03-01T09:42:22;35.60;11.10
7530;DHT22;3806;52.270;10.544;2023-03-01T09:45:02;36.00;11.10
7530;DHT22;3806;52.270;10.544;2023-03-01T09:47:38;36.40;11.00
7530;DHT22;3806;52.270;10.544;2023-03-01T09:50:19;36.90;10.70
7530;DHT22;3806;52.270;10.544;2023-03-01T09:55:46;37.40;10.30
7530;DHT22;3806;52.270;10.544;2023-03-01T09:58:25;37.20;9.80
7530;DHT22;3806;52.270;10.544;2023-03-01T10:00:52;37.00;9.80
7530;DHT22;3806;52.270;10.544;2023-03-01T10:03:27;37.10;9.60
7530;DHT22;3806;52.270;10.544;2023-03-01T10:06:08;37.30;9.60
7530;DHT22;3806;52.270;10.544;2023-03-01T10:08:42;37.40;9.30
7530;DHT22;3806;52.270;10.544;2023-03-01T10:11:26;37.40;9.10
7530;DHT22;3806;52.270;10.544;2023-03-01T10:14:23;37.30;9.00
7530;DHT22;3806;52.270;10.544;2023-03-01T10:17:02;37.00;9.00
7530;DHT22;3806;52.270;10.544;2023-03-01T10:19:39;36.80;9.10
7530;DHT22;3806;52.270;10.544;2023-03-01T10:22:15;36.50;9.30
7530;DHT22;3806;52.270;10.544;2023-03-01T10:24:41;36.10;9.40
7530;DHT22;3806;52.270;10.544;2023-03-01T10:27:36;35.50;9.20
7530;DHT22;3806;52.270;10.544;2023-03-01T10:32:48;33.50;10.00
7530;DHT22;3806;52.270;10.544;2023-03-01T10:40:29;32.60;10.80
7530;DHT22;3806;52.270;10.544;2023-03-01T10:42:58;32.70;10.50
7530;DHT22;3806;52.270;10.544;2023-03-01T10:45:33;33.00;10.60
7530;DHT22;3806;52.270;10.544;2023-03-01T10:50:41;34.60;10.00
7530;DHT22;3806;52.270;10.544;2023-03-01T10:53:27;35.40;9.70
7530;DHT22;3806;52.270;10.544;2023-03-01T10:56:10;36.10;9.40
7530;DHT22;3806;52.270;10.544;2023-03-01T10:58:38;36.60;9.30
7530;DHT22;3806;52.270;10.544;2023-03-01T11:01:08;36.80;9.20
7530;DHT22;3806;52.270;10.544;2023-03-01T11:06:34;37.00;8.90
7530;DHT22;3806;52.270;10.544;2023-03-01T11:09:15;36.90;8.90
7530;DHT22;3806;52.270;10.544;2023-03-01T11:11:42;36.80;9.00
7530;DHT22;3806;52.270;10.544;2023-03-01T11:14:20;36.70;9.00
7530;DHT22;3806;52.270;10.544;2023-03-01T11:16:48;36.70;8.70
7530;DHT22;3806;52.270;10.544;2023-03-01T11:19:19;36.50;8.80
7530;DHT22;3806;52.270;10.544;2023-03-01T11:22:12;36.40;9.00
7530;DHT22;3806;52.270;10.544;2023-03-01T11:24:41;36.40;8.90
7530;DHT22;3806;52.270;10.544;2023-03-01T11:27:23;35.90;9.00
7530;DHT22;3806;52.270;10.544;2023-03-01T11:30:09;35.60;9.00
7530;DHT22;3806;52.270;10.544;2023-03-01T11:32:47;35.30;9.10
7530;DHT22;3806;52.270;10.544;2023-03-01T11:35:23;35.10;9.20
7530;DHT22;3806;52.270;10.544;2023-03-01T11:40:50;34.90;9.20
7530;DHT22;3806;52.270;10.544;2023-03-01T11:48:53;34.10;9.30
7530;DHT22;3806;52.270;10.544;2023-03-01T12:03:00;31.30;10.10
7530;DHT22;3806;52.270;10.544;2023-03-01T12:08:35;26.40;11.90
7530;DHT22;3806;52.270;10.544;2023-03-01T12:11:24;24.00;13.10
7530;DHT22;3806;52.270;10.544;2023-03-01T12:14:40;21.80;14.10
7530;DHT22;3806;52.270;10.544;2023-03-01T12:25:34;16.50;17.50
7530;DHT22;3806;52.270;10.544;2023-03-01T12:28:16;15.70;18.30
7530;DHT22;3806;52.270;10.544;2023-03-01T12:31:15;15.10;19.00
7530;DHT22;3806;52.270;10.544;2023-03-01T12:37:05;13.80;19.90
7530;DHT22;3806;52.270;10.544;2023-03-01T12:40:02;13.30;20.30
7530;DHT22;3806;52.270;10.544;2023-03-01T12:48:29;12.70;21.20
7530;DHT22;3806;52.270;10.544;2023-03-01T12:51:01;12.90;21.10
7530;DHT22;3806;52.270;10.544;2023-03-01T12:53:29;13.30;21.00
7530;DHT22;3806;52.270;10.544;2023-03-01T12:56:00;13.50;21.00
7530;DHT22;3806;52.270;10.544;2023-03-01T12:58:39;13.80;20.90
7530;DHT22;3806;52.270;10.544;2023-03-01T13:01:22;13.90;21.00
7530;DHT22;3806;52.270;10.544;2023-03-01T13:04:15;14.00;20.90
7530;DHT22;3806;52.270;10.544;2023-03-01T13:10:01;14.20;21.00
7530;DHT22;3806;52.270;10.544;2023-03-01T13:18:00;14.20;20.90
7530;DHT22;3806;52.270;10.544;2023-03-01T13:20:48;14.30;21.00
7530;DHT22;3806;52.270;10.544;2023-03-01T13:26:15;14.50;21.10
7530;DHT22;3806;52.270;10.544;2023-03-01T13:33:48;14.60;21.10
7530;DHT22;3806;52.270;10.544;2023-03-01T13:38:56;14.80;21.00
7530;DHT22;3806;52.270;10.544;2023-03-01T13:46:44;15.40;21.10
7530;DHT22;3806;52.270;10.544;2023-03-01T13:49:14;15.30;20.80
7530;DHT22;3806;52.270;10.544;2023-03-01T13:51:41;15.40;21.00
7530;DHT22;3806;52.270;10.544;2023-03-01T13:54:11;15.60;21.10
7530;DHT22;3806;52.270;10.544;2023-03-01T13:56:37;15.70;20.80
7530;DHT22;3806;52.270;10.544;2023-03-01T13:59:14;15.80;21.20
7530;DHT22;3806;52.270;10.544;2023-03-01T14:01:40;15.90;21.00
7530;DHT22;3806;52.270;10.544;2023-03-01T14:04:28;15.90;20.60
7530;DHT22;3806;52.270;10.544;2023-03-01T14:09:44;15.70;20.70
7530;DHT22;3806;52.270;10.544;2023-03-01T14:15:04;15.30;20.10
7530;DHT22;3806;52.270;10.544;2023-03-01T14:18:32;15.10;20.40
7530;DHT22;3806;52.270;10.544;2023-03-01T14:20:30;14.90;20.50
7530;DHT22;3806;52.270;10.544;2023-03-01T14:22:59;14.60;20.80
7530;DHT22;3806;52.270;10.544;2023-03-01T14:25:35;14.50;21.10
7530;DHT22;3806;52.270;10.544;2023-03-01T14:28:15;14.30;21.00
7530;DHT22;3806;52.270;10.544;2023-03-01T14:30:47;14.10;21.20
7530;DHT22;3806;52.270;10.544;2023-03-01T14:33:23;13.90;21.40
7530;DHT22;3806;52.270;10.544;2023-03-01T14:36:01;13.70;21.30
7530;DHT22;3806;52.270;10.544;2023-03-01T14:38:33;13.50;21.40
7530;DHT22;3806;52.270;10.544;2023-03-01T14:41:09;13.30;21.30
7530;DHT22;3806;52.270;10.544;2023-03-01T14:43:37;13.00;21.10
7530;DHT22;3806;52.270;10.544;2023-03-01T14:46:03;12.70;21.50
7530;DHT22;3806;52.270;10.544;2023-03-01T14:48:29;12.50;21.50
7530;DHT22;3806;52.270;10.544;2023-03-01T14:50:57;12.30;21.70
7530;DHT22;3806;52.270;10.544;2023-03-01T14:53:26;12.00;22.10
7530;DHT22;3806;52.270;10.544;2023-03-01T14:55:55;11.60;22.20
7530;DHT22;3806;52.270;10.544;2023-03-01T14:58:24;11.50;22.70
7530;DHT22;3806;52.270;10.544;2023-03-01T15:00:55;11.30;23.00
7530;DHT22;3806;52.270;10.544;2023-03-01T15:03:41;11.10;23.20
7530;DHT22;3806;52.270;10.544;2023-03-01T15:06:09;10.80;23.40
7530;DHT22;3806;52.270;10.544;2023-03-01T15:08:37;10.60;23.50
7530;DHT22;3806;52.270;10.544;2023-03-01T15:11:22;10.40;23.60
7530;DHT22;3806;52.270;10.544;2023-03-01T15:13:51;10.30;23.50
7530;DHT22;3806;52.270;10.544;2023-03-01T15:18:56;10.00;23.80
7530;DHT22;3806;52.270;10.544;2023-03-01T15:21:25;9.80;24.90
7530;DHT22;3806;52.270;10.544;2023-03-01T15:24:05;9.70;25.10
7530;DHT22;3806;52.270;10.544;2023-03-01T15:26:39;9.50;25.80
7530;DHT22;3806;52.270;10.544;2023-03-01T15:29:19;9.50;25.70
7530;DHT22;3806;52.270;10.544;2023-03-01T15:32:27;9.40;25.70
7530;DHT22;3806;52.270;10.544;2023-03-01T15:34:52;9.30;26.10
7530;DHT22;3806;52.270;10.544;2023-03-01T15:37:49;9.20;26.30
7530;DHT22;3806;52.270;10.544;2023-03-01T15:40:23;9.10;26.40
7530;DHT22;3806;52.270;10.544;2023-03-01T15:43:03;9.10;26.70
7530;DHT22;3806;52.270;10.544;2023-03-01T15:45:31;9.00;26.80
7530;DHT22;3806;52.270;10.544;2023-03-01T15:48:04;8.90;26.80
7530;DHT22;3806;52.270;10.544;2023-03-01T15:50:35;8.80;27.10
7530;DHT22;3806;52.270;10.544;2023-03-01T15:53:08;8.80;27.30
7530;DHT22;3806;52.270;10.544;2023-03-01T15:55:37;8.80;27.20
7530;DHT22;3806;52.270;10.544;2023-03-01T15:58:04;8.80;27.40
7530;DHT22;3806;52.270;10.544;2023-03-01T16:00:32;8.70;27.50
7530;DHT22;3806;52.270;10.544;2023-03-01T16:02:58;8.70;27.80
7530;DHT22;3806;52.270;10.544;2023-03-01T16:05:26;8.70;27.50
7530;DHT22;3806;52.270;10.544;2023-03-01T16:07:54;8.60;27.50
7530;DHT22;3806;52.270;10.544;2023-03-01T16:10:21;8.50;27.60
7530;DHT22;3806;52.270;10.544;2023-03-01T16:12:47;8.50;27.80
7530;DHT22;3806;52.270;10.544;2023-03-01T16:15:18;8.50;27.70
7530;DHT22;3806;52.270;10.544;2023-03-01T16:17:44;8.30;27.70
7530;DHT22;3806;52.270;10.544;2023-03-01T16:20:10;8.40;28.00
7530;DHT22;3806;52.270;10.544;2023-03-01T16:22:36;8.40;28.00
7530;DHT22;3806;52.270;10.544;2023-03-01T16:25:02;8.30;28.10
7530;DHT22;3806;52.270;10.544;2023-03-01T16:27:28;8.30;28.20
7530;DHT22;3806;52.270;10.544;2023-03-01T16:29:54;8.20;28.30
7530;DHT22;3806;52.270;10.544;2023-03-01T16:32:20;8.20;28.50
7530;DHT22;3806;52.270;10.544;2023-03-01T16:34:46;8.20;28.60
7530;DHT22;3806;52.270;10.544;2023-03-01T16:37:14;8.10;28.80
7530;DHT22;3806;52.270;10.544;2023-03-01T16:39:41;8.10;28.90
7530;DHT22;3806;52.270;10.544;2023-03-01T16:42:07;8.10;28.90
7530;DHT22;3806;52.270;10.544;2023-03-01T16:44:33;8.00;28.90
7530;DHT22;3806;52.270;10.544;2023-03-01T16:46:58;8.00;29.10
7530;DHT22;3806;52.270;10.544;2023-03-01T16:49:24;7.90;29.30
7530;DHT22;3806;52.270;10.544;2023-03-01T16:51:49;7.90;29.30
7530;DHT22;3806;52.270;10.544;2023-03-01T16:54:15;7.90;29.40
7530;DHT22;3806;52.270;10.544;2023-03-01T16:56:40;7.80;29.50
7530;DHT22;3806;52.270;10.544;2023-03-01T16:59:07;7.80;29.80
7530;DHT22;3806;52.270;10.544;2023-03-01T17:01:33;7.70;29.70
7530;DHT22;3806;52.270;10.544;2023-03-01T17:04:00;7.70;29.90
7530;DHT22;3806;52.270;10.544;2023-03-01T17:06:26;7.60;30.00
7530;DHT22;3806;52.270;10.544;2023-03-01T17:08:52;7.50;29.90
7530;DHT22;3806;52.270;10.544;2023-03-01T17:11:19;7.60;30.20
7530;DHT22;3806;52.270;10.544;2023-03-01T17:13:46;7.40;30.20
7530;DHT22;3806;52.270;10.544;2023-03-01T17:16:15;7.50;30.30
7530;DHT22;3806;52.270;10.544;2023-03-01T17:18:42;7.40;30.50
7530;DHT22;3806;52.270;10.544;2023-03-01T17:21:08;7.30;30.70
7530;DHT22;3806;52.270;10.544;2023-03-01T17:23:36;7.40;30.90
7530;DHT22;3806;52.270;10.544;2023-03-01T17:26:02;7.20;30.90
7530;DHT22;3806;52.270;10.544;2023-03-01T17:28:30;7.20;31.00
7530;DHT22;3806;52.270;10.544;2023-03-01T17:30:58;7.10;31.20
7530;DHT22;3806;52.270;10.544;2023-03-01T17:33:24;7.00;31.20
7530;DHT22;3806;52.270;10.544;2023-03-01T17:35:50;7.00;31.50
7530;DHT22;3806;52.270;10.544;2023-03-01T17:38:17;6.90;31.80
7530;DHT22;3806;52.270;10.544;2023-03-01T17:40:44;6.90;32.10
7530;DHT22;3806;52.270;10.544;2023-03-01T17:43:13;6.80;32.20